sensor_id;sensor_type;location;lat;lon;timestamp;P1;durP1;ratioP1;P2;durP2;ratioP2
17763;SDS011;22245;52.832;13.816;2023-04-01T00:01:32;6.90;;;2.73;;
17763;SDS011;22245;52.832;13.816;2023-04-01T00:04:54;4.00;;;2.70;;
17763;SDS011;22245;52.832;13.816;2023-04-01T00:08:15;7.80;;;4.37;;
17763;SDS011;22245;52.832;13.816;2023-04-01T00:11:38;4.73;;;3.50;;
17763;SDS011;22245;52.832;13.816;2023-04-01T00:15:02;9.47;;;4.07;;
17763;SDS011;22245;52.832;13.816;2023-04-01T00:18:24;6.50;;;3.43;;
17763;SDS011;22245;52.832;13.816;2023-04-01T00:21:46;6.80;;;3.97;;
17763;SDS011;22245;52.832;13.816;2023-04-01T00:25:09;5.83;;;3.80;;
17763;SDS011;22245;52.832;13.816;2023-04-01T00:28:31;7.05;;;4.15;;
17763;SDS011;22245;52.832;13.816;2023-04-01T00:31:57;7.90;;;4.00;;
17763;SDS011;22245;52.832;13.816;2023-04-01T00:35:19;5.30;;;3.95;;
17763;SDS011;22245;52.832;13.816;2023-04-01T00:38:42;7.70;;;4.10;;
17763;SDS011;22245;52.832;13.816;2023-04-01T00:42:05;9.17;;;4.87;;
17763;SDS011;22245;52.832;13.816;2023-04-01T00:45:28;7.57;;;4.53;;
17763;SDS011;22245;52.832;13.816;2023-04-01T00:48:55;9.53;;;5.13;;
17763;SDS011;22245;52.832;13.816;2023-04-01T00:52:18;8.20;;;4.87;;
17763;SDS011;22245;52.832;13.816;2023-04-01T00:55:43;11.47;;;5.23;;
17763;SDS011;22245;52.832;13.816;2023-04-01T00:59:11;10.70;;;5.07;;
17763;SDS011;22245;52.832;13.816;2023-04-01T01:02:37;8.80;;;5.17;;
17763;SDS011;22245;52.832;13.816;2023-04-01T01:09:55;9.43;;;5.60;;
17763;SDS011;22245;52.832;13.816;2023-04-01T01:13:24;9.27;;;5.27;;
17763;SDS011;22245;52.832;13.816;2023-04-01T01:16:52;8.97;;;5.33;;
17763;SDS011;22245;52.832;13.816;2023-04-01T01:24:22;9.47;;;5.70;;
17763;SDS011;22245;52.832;13.816;2023-04-01T01:27:54;8.87;;;5.37;;
17763;SDS011;22245;52.832;13.816;2023-04-01T01:31:24;12.27;;;5.20;;
17763;SDS011;22245;52.832;13.816;2023-04-01T01:34:55;10.80;;;6.07;;
17763;SDS011;22245;52.832;13.816;2023-04-01T01:38:31;12.90;;;6.30;;
17763;SDS011;22245;52.832;13.816;2023-04-01T01:41:57;9.53;;;5.73;;
17763;SDS011;22245;52.832;13.816;2023-04-01T01:45:23;7.40;;;5.00;;
17763;SDS011;22245;52.832;13.816;2023-04-01T01:48:46;10.50;;;5.50;;
17763;SDS011;22245;52.832;13.816;2023-04-01T01:52:12;8.87;;;5.37;;
17763;SDS011;22245;52.832;13.816;2023-04-01T01:55:34;11.27;;;6.60;;
17763;SDS011;22245;52.832;13.816;2023-04-01T01:58:58;11.20;;;6.63;;
17763;SDS011;22245;52.832;13.816;2023-04-01T02:02:25;12.60;;;7.37;;
17763;SDS011;22245;52.832;13.816;2023-04-01T02:05:52;15.13;;;8.00;;
17763;SDS011;22245;52.832;13.816;2023-04-01T02:09:17;11.07;;;6.80;;
17763;SDS011;22245;52.832;13.816;2023-04-01T02:12:40;15.17;;;7.73;;
17763;SDS011;22245;52.832;13.816;2023-04-01T02:16:05;14.37;;;7.80;;
17763;SDS011;22245;52.832;13.816;2023-04-01T02:19:33;13.73;;;7.80;;
17763;SDS011;22245;52.832;13.816;2023-04-01T02:22:58;15.80;;;7.90;;
17763;SDS011;22245;52.832;13.816;2023-04-01T02:26:22;18.07;;;8.80;;
17763;SDS011;22245;52.832;13.816;2023-04-01T02:29:46;15.17;;;9.27;;
17763;SDS011;22245;52.832;13.816;2023-04-01T02:33:08;16.47;;;8.87;;
17763;SDS011;22245;52.832;13.816;2023-04-01T02:36:30;19.57;;;9.80;;
17763;SDS011;22245;52.832;13.816;2023-04-01T02:39:52;20.47;;;11.00;;
17763;SDS011;22245;52.832;13.816;2023-04-01T02:43:15;20.33;;;10.63;;
17763;SDS011;22245;52.832;13.816;2023-04-01T02:46:37;17.50;;;10.13;;
17763;SDS011;22245;52.832;13.816;2023-04-01T02:49:59;18.27;;;10.30;;
17763;SDS011;22245;52.832;13.816;2023-04-01T02:53:21;16.67;;;9.27;;
17763;SDS011;22245;52.832;13.816;2023-04-01T02:56:43;14.97;;;8.60;;
17763;SDS011;22245;52.832;13.816;2023-04-01T03:00:07;15.77;;;9.53;;
17763;SDS011;22245;52.832;13.816;2023-04-01T03:03:31;15.00;;;8.73;;
17763;SDS011;22245;52.832;13.816;2023-04-01T03:06:53;16.90;;;10.00;;
17763;SDS011;22245;52.832;13.816;2023-04-01T03:10:15;18.67;;;10.53;;
17763;SDS011;22245;52.832;13.816;2023-04-01T03:13:37;18.83;;;9.50;;
17763;SDS011;22245;52.832;13.816;2023-04-01T03:17:00;19.17;;;9.73;;
17763;SDS011;22245;52.832;13.816;2023-04-01T03:20:22;20.40;;;10.63;;
17763;SDS011;22245;52.832;13.816;2023-04-01T03:23:43;19.30;;;10.17;;
17763;SDS011;22245;52.832;13.816;2023-04-01T03:27:05;18.60;;;10.40;;
17763;SDS011;22245;52.832;13.816;2023-04-01T03:30:27;16.60;;;9.13;;
17763;SDS011;22245;52.832;13.816;2023-04-01T03:33:51;17.53;;;9.20;;
17763;SDS011;22245;52.832;13.816;2023-04-01T03:37:13;17.07;;;9.60;;
17763;SDS011;22245;52.832;13.816;2023-04-01T03:40:35;15.63;;;8.70;;
17763;SDS011;22245;52.832;13.816;2023-04-01T03:43:59;16.87;;;9.20;;
17763;SDS011;22245;52.832;13.816;2023-04-01T03:47:20;16.57;;;8.83;;
17763;SDS011;22245;52.832;13.816;2023-04-01T03:50:43;18.63;;;9.20;;
17763;SDS011;22245;52.832;13.816;2023-04-01T03:54:06;17.67;;;9.70;;
17763;SDS011;22245;52.832;13.816;2023-04-01T03:57:28;17.63;;;9.80;;
17763;SDS011;22245;52.832;13.816;2023-04-01T04:00:58;16.67;;;9.70;;
17763;SDS011;22245;52.832;13.816;2023-04-01T04:04:21;16.10;;;8.97;;
17763;SDS011;22245;52.832;13.816;2023-04-01T04:07:44;17.83;;;8.13;;
17763;SDS011;22245;52.832;13.816;2023-04-01T04:11:06;15.63;;;7.60;;
17763;SDS011;22245;52.832;13.816;2023-04-01T04:14:31;14.57;;;8.70;;
17763;SDS011;22245;52.832;13.816;2023-04-01T04:17:53;13.73;;;8.00;;
17763;SDS011;22245;52.832;13.816;2023-04-01T04:21:15;13.23;;;7.60;;
17763;SDS011;22245;52.832;13.816;2023-04-01T04:24:38;12.13;;;7.50;;
17763;SDS011;22245;52.832;13.816;2023-04-01T04:28:04;11.33;;;7.27;;
17763;SDS011;22245;52.832;13.816;2023-04-01T04:31:26;11.67;;;6.53;;
17763;SDS011;22245;52.832;13.816;2023-04-01T04:34:50;10.67;;;6.67;;
17763;SDS011;22245;52.832;13.816;2023-04-01T04:38:12;10.80;;;6.63;;
17763;SDS011;22245;52.832;13.816;2023-04-01T04:41:36;12.00;;;6.20;;
17763;SDS011;22245;52.832;13.816;2023-04-01T04:44:58;11.17;;;6.80;;
17763;SDS011;22245;52.832;13.816;2023-04-01T04:48:20;10.57;;;6.70;;
17763;SDS011;22245;52.832;13.816;2023-04-01T04:51:42;10.37;;;6.53;;
17763;SDS011;22245;52.832;13.816;2023-04-01T04:55:05;10.00;;;6.70;;
17763;SDS011;22245;52.832;13.816;2023-04-01T04:58:29;9.40;;;6.13;;
17763;SDS011;22245;52.832;13.816;2023-04-01T05:01:51;8.73;;;6.27;;
17763;SDS011;22245;52.832;13.816;2023-04-01T05:05:13;10.10;;;5.93;;
17763;SDS011;22245;52.832;13.816;2023-04-01T05:08:35;10.87;;;6.40;;
17763;SDS011;22245;52.832;13.816;2023-04-01T05:11:57;11.20;;;6.77;;
17763;SDS011;22245;52.832;13.816;2023-04-01T05:15:24;11.50;;;6.60;;
17763;SDS011;22245;52.832;13.816;2023-04-01T05:18:47;11.27;;;6.80;;
17763;SDS011;22245;52.832;13.816;2023-04-01T05:22:08;12.73;;;6.90;;
17763;SDS011;22245;52.832;13.816;2023-04-01T05:25:30;11.00;;;6.90;;
17763;SDS011;22245;52.832;13.816;2023-04-01T05:28:52;10.23;;;6.13;;
17763;SDS011;22245;52.832;13.816;2023-04-01T05:32:16;11.23;;;6.90;;
17763;SDS011;22245;52.832;13.816;2023-04-01T05:35:38;9.70;;;6.03;;
17763;SDS011;22245;52.832;13.816;2023-04-01T05:39:00;9.97;;;6.27;;
17763;SDS011;22245;52.832;13.816;2023-04-01T05:42:22;10.40;;;6.13;;
17763;SDS011;22245;52.832;13.816;2023-04-01T05:45:43;11.50;;;6.00;;
17763;SDS011;22245;52.832;13.816;2023-04-01T05:49:07;11.13;;;6.47;;
17763;SDS011;22245;52.832;13.816;2023-04-01T05:52:29;15.97;;;6.43;;
17763;SDS011;22245;52.832;13.816;2023-04-01T05:55:51;11.60;;;6.23;;
17763;SDS011;22245;52.832;13.816;2023-04-01T05:59:12;12.00;;;6.40;;
17763;SDS011;22245;52.832;13.816;2023-04-01T06:02:34;12.07;;;6.83;;
17763;SDS011;22245;52.832;13.816;2023-04-01T06:05:59;10.33;;;6.53;;
17763;SDS011;22245;52.832;13.816;2023-04-01T06:09:23;11.57;;;6.87;;
17763;SDS011;22245;52.832;13.816;2023-04-01T06:12:51;10.77;;;6.60;;
17763;SDS011;22245;52.832;13.816;2023-04-01T06:16:22;11.30;;;7.00;;
17763;SDS011;22245;52.832;13.816;2023-04-01T06:19:54;10.33;;;6.57;;
17763;SDS011;22245;52.832;13.816;2023-04-01T06:23:26;12.70;;;8.10;;
17763;SDS011;22245;52.832;13.816;2023-04-01T06:26:57;11.93;;;7.70;;
17763;SDS011;22245;52.832;13.816;2023-04-01T06:30:38;12.10;;;8.00;;
17763;SDS011;22245;52.832;13.816;2023-04-01T06:34:14;12.27;;;8.30;;
17763;SDS011;22245;52.832;13.816;2023-04-01T06:41:57;14.87;;;9.03;;
17763;SDS011;22245;52.832;13.816;2023-04-01T06:45:40;16.57;;;10.00;;
17763;SDS011;22245;52.832;13.816;2023-04-01T06:49:44;14.90;;;9.63;;
17763;SDS011;22245;52.832;13.816;2023-04-01T06:53:33;14.60;;;9.73;;
17763;SDS011;22245;52.832;13.816;2023-04-01T06:57:23;20.07;;;11.27;;
17763;SDS011;22245;52.832;13.816;2023-04-01T07:00:51;16.03;;;10.80;;
17763;SDS011;22245;52.832;13.816;2023-04-01T07:04:16;17.30;;;11.27;;
17763;SDS011;22245;52.832;13.816;2023-04-01T07:07:43;18.03;;;11.47;;
17763;SDS011;22245;52.832;13.816;2023-04-01T07:11:09;18.40;;;11.47;;
17763;SDS011;22245;52.832;13.816;2023-04-01T07:14:52;16.00;;;10.30;;
17763;SDS011;22245;52.832;13.816;2023-04-01T07:18:18;15.30;;;9.17;;
17763;SDS011;22245;52.832;13.816;2023-04-01T07:21:47;14.13;;;9.07;;
17763;SDS011;22245;52.832;13.816;2023-04-01T07:25:22;12.53;;;8.57;;
17763;SDS011;22245;52.832;13.816;2023-04-01T07:29:05;12.13;;;7.93;;
17763;SDS011;22245;52.832;13.816;2023-04-01T07:32:37;10.37;;;7.47;;
17763;SDS011;22245;52.832;13.816;2023-04-01T07:36:06;9.83;;;7.30;;
17763;SDS011;22245;52.832;13.816;2023-04-01T07:39:35;8.57;;;6.40;;
17763;SDS011;22245;52.832;13.816;2023-04-01T07:43:19;9.97;;;6.43;;
17763;SDS011;22245;52.832;13.816;2023-04-01T07:47:10;10.13;;;7.10;;
17763;SDS011;22245;52.832;13.816;2023-04-01T07:50:46;11.27;;;8.10;;
17763;SDS011;22245;52.832;13.816;2023-04-01T07:54:16;12.63;;;8.67;;
17763;SDS011;22245;52.832;13.816;2023-04-01T07:57:43;14.03;;;9.23;;
17763;SDS011;22245;52.832;13.816;2023-04-01T08:01:13;14.00;;;9.87;;
17763;SDS011;22245;52.832;13.816;2023-04-01T08:04:49;15.27;;;10.10;;
17763;SDS011;22245;52.832;13.816;2023-04-01T08:08:19;14.47;;;10.07;;
17763;SDS011;22245;52.832;13.816;2023-04-01T08:12:26;14.10;;;9.67;;
17763;SDS011;22245;52.832;13.816;2023-04-01T08:15:55;12.00;;;8.60;;
17763;SDS011;22245;52.832;13.816;2023-04-01T08:19:44;11.30;;;8.03;;
17763;SDS011;22245;52.832;13.816;2023-04-01T08:23:13;12.33;;;9.30;;
17763;SDS011;22245;52.832;13.816;2023-04-01T08:26:39;12.90;;;9.50;;
17763;SDS011;22245;52.832;13.816;2023-04-01T08:30:06;12.87;;;9.30;;
17763;SDS011;22245;52.832;13.816;2023-04-01T08:33:38;12.07;;;8.97;;
17763;SDS011;22245;52.832;13.816;2023-04-01T08:37:07;12.93;;;9.70;;
17763;SDS011;22245;52.832;13.816;2023-04-01T08:48:53;13.13;;;9.13;;
17763;SDS011;22245;52.832;13.816;2023-04-01T08:52:28;11.17;;;8.47;;
17763;SDS011;22245;52.832;13.816;2023-04-01T08:56:01;10.43;;;8.60;;
17763;SDS011;22245;52.832;13.816;2023-04-01T08:59:34;11.33;;;7.40;;
17763;SDS011;22245;52.832;13.816;2023-04-01T09:03:59;11.23;;;8.33;;
17763;SDS011;22245;52.832;13.816;2023-04-01T09:07:46;10.70;;;8.07;;
17763;SDS011;22245;52.832;13.816;2023-04-01T09:11:21;12.80;;;8.30;;
17763;SDS011;22245;52.832;13.816;2023-04-01T09:15:25;11.73;;;8.13;;
17763;SDS011;22245;52.832;13.816;2023-04-01T09:19:21;11.43;;;8.03;;
17763;SDS011;22245;52.832;13.816;2023-04-01T09:22:57;9.80;;;7.60;;
17763;SDS011;22245;52.832;13.816;2023-04-01T09:26:35;9.67;;;7.93;;
17763;SDS011;22245;52.832;13.816;2023-04-01T09:30:24;9.80;;;7.40;;
17763;SDS011;22245;52.832;13.816;2023-04-01T09:34:06;10.37;;;7.57;;
17763;SDS011;22245;52.832;13.816;2023-04-01T09:37:57;9.00;;;7.13;;
17763;SDS011;22245;52.832;13.816;2023-04-01T09:41:35;9.53;;;7.50;;
17763;SDS011;22245;52.832;13.816;2023-04-01T09:45:18;10.33;;;7.43;;
17763;SDS011;22245;52.832;13.816;2023-04-01T09:48:57;12.90;;;8.10;;
17763;SDS011;22245;52.832;13.816;2023-04-01T09:52:37;9.17;;;7.37;;
17763;SDS011;22245;52.832;13.816;2023-04-01T09:56:19;10.00;;;7.73;;
17763;SDS011;22245;52.832;13.816;2023-04-01T10:00:07;9.63;;;7.60;;
17763;SDS011;22245;52.832;13.816;2023-04-01T10:07:48;10.03;;;7.87;;
17763;SDS011;22245;52.832;13.816;2023-04-01T10:19:49;7.70;;;6.10;;
17763;SDS011;22245;52.832;13.816;2023-04-01T10:31:38;8.63;;;6.23;;
17763;SDS011;22245;52.832;13.816;2023-04-01T10:35:34;8.57;;;6.23;;
17763;SDS011;22245;52.832;13.816;2023-04-01T10:43:42;8.57;;;6.77;;
17763;SDS011;22245;52.832;13.816;2023-04-01T10:47:47;10.53;;;7.70;;
17763;SDS011;22245;52.832;13.816;2023-04-01T10:56:33;8.40;;;6.40;;
17763;SDS011;22245;52.832;13.816;2023-04-01T11:04:44;9.67;;;6.57;;
17763;SDS011;22245;52.832;13.816;2023-04-01T11:09:05;8.97;;;7.00;;
17763;SDS011;22245;52.832;13.816;2023-04-01T11:17:17;11.20;;;7.90;;
17763;SDS011;22245;52.832;13.816;2023-04-01T11:21:22;9.93;;;7.80;;
17763;SDS011;22245;52.832;13.816;2023-04-01T11:25:22;11.53;;;7.90;;
17763;SDS011;22245;52.832;13.816;2023-04-01T11:33:33;11.30;;;8.20;;
17763;SDS011;22245;52.832;13.816;2023-04-01T11:37:01;10.30;;;8.07;;
17763;SDS011;22245;52.832;13.816;2023-04-01T11:40:39;11.30;;;8.23;;
17763;SDS011;22245;52.832;13.816;2023-04-01T11:44:27;10.83;;;7.50;;
17763;SDS011;22245;52.832;13.816;2023-04-01T11:48:13;11.30;;;7.77;;
17763;SDS011;22245;52.832;13.816;2023-04-01T11:51:59;11.53;;;7.83;;
17763;SDS011;22245;52.832;13.816;2023-04-01T11:55:33;10.43;;;7.00;;
17763;SDS011;22245;52.832;13.816;2023-04-01T11:59:08;9.60;;;6.80;;
17763;SDS011;22245;52.832;13.816;2023-04-01T12:02:53;11.20;;;6.40;;
17763;SDS011;22245;52.832;13.816;2023-04-01T12:06:35;7.13;;;4.83;;
17763;SDS011;22245;52.832;13.816;2023-04-01T12:10:05;6.30;;;5.03;;
17763;SDS011;22245;52.832;13.816;2023-04-01T12:13:40;4.67;;;3.87;;
17763;SDS011;22245;52.832;13.816;2023-04-01T12:17:07;5.87;;;4.30;;
17763;SDS011;22245;52.832;13.816;2023-04-01T12:20:39;6.87;;;4.53;;
17763;SDS011;22245;52.832;13.816;2023-04-01T12:24:25;5.37;;;3.83;;
17763;SDS011;22245;52.832;13.816;2023-04-01T12:28:03;5.07;;;3.93;;
17763;SDS011;22245;52.832;13.816;2023-04-01T12:31:34;6.77;;;4.13;;
17763;SDS011;22245;52.832;13.816;2023-04-01T12:35:20;4.10;;;3.57;;
17763;SDS011;22245;52.832;13.816;2023-04-01T12:38:49;5.53;;;3.70;;
17763;SDS011;22245;52.832;13.816;2023-04-01T12:42:39;6.27;;;3.70;;
17763;SDS011;22245;52.832;13.816;2023-04-01T12:46:22;4.77;;;3.73;;
17763;SDS011;22245;52.832;13.816;2023-04-01T12:49:55;3.90;;;3.50;;
17763;SDS011;22245;52.832;13.816;2023-04-01T12:53:28;5.43;;;3.87;;
17763;SDS011;22245;52.832;13.816;2023-04-01T12:57:04;6.57;;;4.17;;
17763;SDS011;22245;52.832;13.816;2023-04-01T13:00:46;4.87;;;4.00;;
17763;SDS011;22245;52.832;13.816;2023-04-01T13:08:36;7.27;;;4.47;;
17763;SDS011;22245;52.832;13.816;2023-04-01T13:12:14;6.00;;;4.03;;
17763;SDS011;22245;52.832;13.816;2023-04-01T13:15:49;4.83;;;3.90;;
17763;SDS011;22245;52.832;13.816;2023-04-01T13:19:15;5.27;;;3.63;;
17763;SDS011;22245;52.832;13.816;2023-04-01T13:22:46;4.70;;;3.50;;
17763;SDS011;22245;52.832;13.816;2023-04-01T13:26:21;6.00;;;4.07;;
17763;SDS011;22245;52.832;13.816;2023-04-01T13:29:57;4.90;;;3.67;;
17763;SDS011;22245;52.832;13.816;2023-04-01T13:33:25;5.13;;;3.60;;
17763;SDS011;22245;52.832;13.816;2023-04-01T13:36:58;6.73;;;3.50;;
17763;SDS011;22245;52.832;13.816;2023-04-01T13:40:33;5.97;;;3.90;;
17763;SDS011;22245;52.832;13.816;2023-04-01T13:44:22;8.00;;;4.40;;
17763;SDS011;22245;52.832;13.816;2023-04-01T13:51:57;6.63;;;4.27;;
17763;SDS011;22245;52.832;13.816;2023-04-01T13:55:41;9.40;;;5.27;;
17763;SDS011;22245;52.832;13.816;2023-04-01T14:03:28;7.70;;;5.00;;
17763;SDS011;22245;52.832;13.816;2023-04-01T14:06:56;5.93;;;4.10;;
17763;SDS011;22245;52.832;13.816;2023-04-01T14:10:34;7.87;;;4.60;;
17763;SDS011;22245;52.832;13.816;2023-04-01T14:14:03;9.03;;;5.07;;
17763;SDS011;22245;52.832;13.816;2023-04-01T14:17:37;9.37;;;5.33;;
17763;SDS011;22245;52.832;13.816;2023-04-01T14:21:17;11.33;;;5.57;;
17763;SDS011;22245;52.832;13.816;2023-04-01T14:24:53;8.53;;;5.10;;
17763;SDS011;22245;52.832;13.816;2023-04-01T14:28:36;7.63;;;4.67;;
17763;SDS011;22245;52.832;13.816;2023-04-01T14:32:07;7.57;;;4.90;;
17763;SDS011;22245;52.832;13.816;2023-04-01T14:35:37;6.37;;;4.50;;
17763;SDS011;22245;52.832;13.816;2023-04-01T14:39:08;6.67;;;4.13;;
17763;SDS011;22245;52.832;13.816;2023-04-01T14:42:46;6.73;;;4.50;;
17763;SDS011;22245;52.832;13.816;2023-04-01T14:46:23;6.60;;;4.50;;
17763;SDS011;22245;52.832;13.816;2023-04-01T14:50:02;7.03;;;4.80;;
17763;SDS011;22245;52.832;13.816;2023-04-01T14:53:29;7.83;;;4.40;;
17763;SDS011;22245;52.832;13.816;2023-04-01T14:57:01;7.43;;;4.50;;
17763;SDS011;22245;52.832;13.816;2023-04-01T15:00:29;7.83;;;4.17;;
17763;SDS011;22245;52.832;13.816;2023-04-01T15:08:02;7.50;;;3.97;;
17763;SDS011;22245;52.832;13.816;2023-04-01T15:11:38;5.27;;;3.33;;
17763;SDS011;22245;52.832;13.816;2023-04-01T15:15:12;5.97;;;4.07;;
17763;SDS011;22245;52.832;13.816;2023-04-01T15:18:48;4.80;;;3.37;;
17763;SDS011;22245;52.832;13.816;2023-04-01T15:22:19;5.90;;;4.03;;
17763;SDS011;22245;52.832;13.816;2023-04-01T15:26:06;7.33;;;3.53;;
17763;SDS011;22245;52.832;13.816;2023-04-01T15:29:50;6.43;;;3.83;;
17763;SDS011;22245;52.832;13.816;2023-04-01T15:33:38;5.37;;;3.20;;
17763;SDS011;22245;52.832;13.816;2023-04-01T15:37:09;5.47;;;3.53;;
17763;SDS011;22245;52.832;13.816;2023-04-01T15:40:42;5.23;;;3.37;;
17763;SDS011;22245;52.832;13.816;2023-04-01T15:47:58;5.13;;;3.33;;
17763;SDS011;22245;52.832;13.816;2023-04-01T15:51:26;4.67;;;3.47;;
17763;SDS011;22245;52.832;13.816;2023-04-01T15:55:03;5.93;;;3.50;;
17763;SDS011;22245;52.832;13.816;2023-04-01T15:58:43;5.80;;;3.50;;
17763;SDS011;22245;52.832;13.816;2023-04-01T16:02:14;5.80;;;3.50;;
17763;SDS011;22245;52.832;13.816;2023-04-01T16:05:47;5.73;;;3.60;;
17763;SDS011;22245;52.832;13.816;2023-04-01T16:09:28;6.80;;;3.77;;
17763;SDS011;22245;52.832;13.816;2023-04-01T16:13:04;5.17;;;3.47;;
17763;SDS011;22245;52.832;13.816;2023-04-01T16:16:53;5.27;;;3.30;;
17763;SDS011;22245;52.832;13.816;2023-04-01T16:20:25;6.40;;;3.40;;
17763;SDS011;22245;52.832;13.816;2023-04-01T16:24:09;7.13;;;3.60;;
17763;SDS011;22245;52.832;13.816;2023-04-01T16:27:40;4.53;;;3.13;;
17763;SDS011;22245;52.832;13.816;2023-04-01T16:31:09;6.80;;;3.60;;
17763;SDS011;22245;52.832;13.816;2023-04-01T16:34:38;4.73;;;3.60;;
17763;SDS011;22245;52.832;13.816;2023-04-01T16:38:09;5.30;;;3.70;;
17763;SDS011;22245;52.832;13.816;2023-04-01T16:41:38;4.77;;;3.30;;
17763;SDS011;22245;52.832;13.816;2023-04-01T16:45:15;6.83;;;3.80;;
17763;SDS011;22245;52.832;13.816;2023-04-01T16:48:49;6.33;;;3.90;;
17763;SDS011;22245;52.832;13.816;2023-04-01T16:52:29;6.40;;;3.90;;
17763;SDS011;22245;52.832;13.816;2023-04-01T16:56:04;7.57;;;4.30;;
17763;SDS011;22245;52.832;13.816;2023-04-01T16:59:36;6.93;;;4.17;;
17763;SDS011;22245;52.832;13.816;2023-04-01T17:03:02;6.77;;;4.03;;
17763;SDS011;22245;52.832;13.816;2023-04-01T17:06:33;6.47;;;4.10;;
17763;SDS011;22245;52.832;13.816;2023-04-01T17:10:11;9.60;;;4.30;;
17763;SDS011;22245;52.832;13.816;2023-04-01T17:13:54;8.77;;;4.70;;
17763;SDS011;22245;52.832;13.816;2023-04-01T17:17:31;8.33;;;4.40;;
17763;SDS011;22245;52.832;13.816;2023-04-01T17:21:00;9.83;;;4.43;;
17763;SDS011;22245;52.832;13.816;2023-04-01T17:24:31;7.27;;;4.03;;
17763;SDS011;22245;52.832;13.816;2023-04-01T17:28:05;8.47;;;4.80;;
17763;SDS011;22245;52.832;13.816;2023-04-01T17:31:42;10.00;;;4.80;;
17763;SDS011;22245;52.832;13.816;2023-04-01T17:35:10;7.63;;;4.20;;
17763;SDS011;22245;52.832;13.816;2023-04-01T17:38:56;9.23;;;4.33;;
17763;SDS011;22245;52.832;13.816;2023-04-01T17:42:33;7.40;;;4.63;;
17763;SDS011;22245;52.832;13.816;2023-04-01T17:46:04;9.57;;;4.83;;
17763;SDS011;22245;52.832;13.816;2023-04-01T17:49:33;7.93;;;4.63;;
17763;SDS011;22245;52.832;13.816;2023-04-01T17:53:06;9.80;;;4.80;;
17763;SDS011;22245;52.832;13.816;2023-04-01T17:56:40;11.80;;;5.10;;
17763;SDS011;22245;52.832;13.816;2023-04-01T18:00:18;12.33;;;5.13;;
17763;SDS011;22245;52.832;13.816;2023-04-01T18:03:54;10.90;;;5.47;;
17763;SDS011;22245;52.832;13.816;2023-04-01T18:07:40;8.33;;;4.70;;
17763;SDS011;22245;52.832;13.816;2023-04-01T18:11:15;11.80;;;5.07;;
17763;SDS011;22245;52.832;13.816;2023-04-01T18:18:46;8.17;;;5.20;;
17763;SDS011;22245;52.832;13.816;2023-04-01T18:22:17;13.47;;;5.33;;
17763;SDS011;22245;52.832;13.816;2023-04-01T18:25:42;8.57;;;5.20;;
17763;SDS011;22245;52.832;13.816;2023-04-01T18:29:13;9.50;;;5.63;;
17763;SDS011;22245;52.832;13.816;2023-04-01T18:32:48;10.60;;;5.23;;
17763;SDS011;22245;52.832;13.816;2023-04-01T18:36:15;8.80;;;4.77;;
17763;SDS011;22245;52.832;13.816;2023-04-01T18:39:41;8.27;;;5.43;;
17763;SDS011;22245;52.832;13.816;2023-04-01T18:43:10;8.83;;;5.37;;
17763;SDS011;22245;52.832;13.816;2023-04-01T18:46:39;9.33;;;5.90;;
17763;SDS011;22245;52.832;13.816;2023-04-01T18:50:12;9.50;;;5.40;;
17763;SDS011;22245;52.832;13.816;2023-04-01T18:53:41;9.30;;;5.27;;
17763;SDS011;22245;52.832;13.816;2023-04-01T18:57:10;11.00;;;5.90;;
17763;SDS011;22245;52.832;13.816;2023-04-01T19:00:36;9.87;;;5.37;;
17763;SDS011;22245;52.832;13.816;2023-04-01T19:04:05;10.47;;;5.07;;
17763;SDS011;22245;52.832;13.816;2023-04-01T19:07:41;10.20;;;5.27;;
17763;SDS011;22245;52.832;13.816;2023-04-01T19:11:06;9.33;;;5.13;;
17763;SDS011;22245;52.832;13.816;2023-04-01T19:14:35;7.80;;;4.47;;
17763;SDS011;22245;52.832;13.816;2023-04-01T19:18:22;7.47;;;4.83;;
17763;SDS011;22245;52.832;13.816;2023-04-01T19:21:56;8.83;;;4.63;;
17763;SDS011;22245;52.832;13.816;2023-04-01T19:25:23;10.40;;;5.13;;
17763;SDS011;22245;52.832;13.816;2023-04-01T19:28:52;8.77;;;4.77;;
17763;SDS011;22245;52.832;13.816;2023-04-01T19:32:22;8.87;;;4.97;;
17763;SDS011;22245;52.832;13.816;2023-04-01T19:35:54;9.40;;;5.10;;
17763;SDS011;22245;52.832;13.816;2023-04-01T19:39:33;7.37;;;4.50;;
17763;SDS011;22245;52.832;13.816;2023-04-01T19:43:08;7.83;;;5.10;;
17763;SDS011;22245;52.832;13.816;2023-04-01T19:46:44;10.07;;;5.50;;
17763;SDS011;22245;52.832;13.816;2023-04-01T19:50:15;9.40;;;5.10;;
17763;SDS011;22245;52.832;13.816;2023-04-01T19:53:51;10.93;;;5.93;;
17763;SDS011;22245;52.832;13.816;2023-04-01T19:57:23;11.03;;;5.70;;
17763;SDS011;22245;52.832;13.816;2023-04-01T20:00:53;11.03;;;5.33;;
17763;SDS011;22245;52.832;13.816;2023-04-01T20:04:20;8.87;;;5.07;;
17763;SDS011;22245;52.832;13.816;2023-04-01T20:07:47;9.77;;;4.90;;
17763;SDS011;22245;52.832;13.816;2023-04-01T20:11:27;10.20;;;5.67;;
17763;SDS011;22245;52.832;13.816;2023-04-01T20:14:58;12.27;;;5.17;;
17763;SDS011;22245;52.832;13.816;2023-04-01T20:18:25;11.97;;;5.07;;
17763;SDS011;22245;52.832;13.816;2023-04-01T20:21:56;8.13;;;4.50;;
17763;SDS011;22245;52.832;13.816;2023-04-01T20:25:23;8.30;;;4.90;;
17763;SDS011;22245;52.832;13.816;2023-04-01T20:29:02;7.87;;;4.40;;
17763;SDS011;22245;52.832;13.816;2023-04-01T20:32:43;9.00;;;4.83;;
17763;SDS011;22245;52.832;13.816;2023-04-01T20:36:30;8.00;;;4.03;;
17763;SDS011;22245;52.832;13.816;2023-04-01T20:40:17;10.90;;;5.57;;
17763;SDS011;22245;52.832;13.816;2023-04-01T20:44:08;7.23;;;4.87;;
17763;SDS011;22245;52.832;13.816;2023-04-01T20:47:40;6.97;;;4.10;;
17763;SDS011;22245;52.832;13.816;2023-04-01T20:51:13;8.27;;;4.13;;
17763;SDS011;22245;52.832;13.816;2023-04-01T20:54:42;8.40;;;4.50;;
17763;SDS011;22245;52.832;13.816;2023-04-01T20:58:18;9.37;;;4.17;;
17763;SDS011;22245;52.832;13.816;2023-04-01T21:01:47;8.43;;;4.47;;
17763;SDS011;22245;52.832;13.816;2023-04-01T21:05:33;6.53;;;3.97;;
17763;SDS011;22245;52.832;13.816;2023-04-01T21:09:16;8.93;;;4.17;;
17763;SDS011;22245;52.832;13.816;2023-04-01T21:12:48;7.07;;;4.50;;
17763;SDS011;22245;52.832;13.816;2023-04-01T21:16:16;6.20;;;4.10;;
17763;SDS011;22245;52.832;13.816;2023-04-01T21:19:52;6.50;;;4.67;;
17763;SDS011;22245;52.832;13.816;2023-04-01T21:23:44;8.30;;;4.27;;
17763;SDS011;22245;52.832;13.816;2023-04-01T21:27:16;10.33;;;4.30;;
17763;SDS011;22245;52.832;13.816;2023-04-01T21:30:52;6.00;;;3.43;;
17763;SDS011;22245;52.832;13.816;2023-04-01T21:34:38;9.13;;;4.13;;
17763;SDS011;22245;52.832;13.816;2023-04-01T21:38:06;6.77;;;3.53;;
17763;SDS011;22245;52.832;13.816;2023-04-01T21:41:49;5.67;;;3.77;;
17763;SDS011;22245;52.832;13.816;2023-04-01T21:45:27;6.63;;;3.83;;
17763;SDS011;22245;52.832;13.816;2023-04-01T21:49:16;6.50;;;3.80;;
17763;SDS011;22245;52.832;13.816;2023-04-01T21:53:00;5.43;;;3.80;;
17763;SDS011;22245;52.832;13.816;2023-04-01T22:00:48;4.50;;;3.60;;
17763;SDS011;22245;52.832;13.816;2023-04-01T22:08:17;7.00;;;4.10;;
17763;SDS011;22245;52.832;13.816;2023-04-01T22:11:52;5.90;;;2.93;;
17763;SDS011;22245;52.832;13.816;2023-04-01T22:15:23;5.30;;;3.70;;
17763;SDS011;22245;52.832;13.816;2023-04-01T22:18:55;7.73;;;3.50;;
17763;SDS011;22245;52.832;13.816;2023-04-01T22:22:22;4.83;;;3.23;;
17763;SDS011;22245;52.832;13.816;2023-04-01T22:25:54;5.67;;;3.33;;
17763;SDS011;22245;52.832;13.816;2023-04-01T22:29:24;7.73;;;3.27;;